Time;durP1;ratioP1;P1;durP2;ratioP2;P2;SDS_P1;SDS_P2;PMS_P1;PMS_P2;Temp;Humidity;BMP_temperature;BMP_pressure;BME280_temperature;BME280_humidity;BME280_pressure;Samples;Min_cycle;Max_cycle;Signal;HPM_P1;HPM_P2
2022/01/15 00:01:45;;;;;;;19.67;10.43;;;6.50;99.90;;;;;;5081418;28;20405;-67
2022/01/15 00:04:11;;;;;;;18.67;10.38;;;6.50;99.90;;;;;;5094692;28;20052;-67
2022/01/15 00:06:37;;;;;;;16.50;9.52;;;6.50;99.90;;;;;;5072831;28;20051;-68
2022/01/15 00:09:03;;;;;;;16.65;9.45;;;6.50;99.90;;;;;;5089573;28;20052;-67
2022/01/15 00:11:29;;;;;;;15.70;9.65;;;6.50;99.90;;;;;;5092688;28;20144;-67
2022/01/15 00:14:11;;;;;;;19.65;10.05;;;6.50;99.90;;;;;;5071205;28;20105;-68
2022/01/15 00:16:47;;;;;;;16.33;9.10;;;6.50;99.90;;;;;;5088122;28;20051;-67
2022/01/15 00:19:15;;;;;;;17.58;9.75;;;6.50;99.90;;;;;;5088669;28;20078;-68
2022/01/15 00:21:41;;;;;;;20.02;9.80;;;6.50;99.90;;;;;;5076604;28;20045;-68
2022/01/15 00:24:07;;;;;;;13.88;8.60;;;6.50;99.90;;;;;;5081228;28;20063;-69
2022/01/15 00:26:33;;;;;;;15.13;9.00;;;6.50;99.90;;;;;;5078261;28;20061;-66
2022/01/15 00:28:59;;;;;;;16.35;9.63;;;6.50;99.90;;;;;;5078878;28;20484;-66
2022/01/15 00:31:25;;;;;;;16.45;9.48;;;6.50;99.90;;;;;;5091367;28;20105;-69
2022/01/15 00:33:51;;;;;;;17.92;9.85;;;6.40;99.90;;;;;;5087997;28;20057;-66
2022/01/15 00:36:17;;;;;;;14.98;9.00;;;6.40;99.90;;;;;;5088770;28;21823;-67
2022/01/15 00:38:43;;;;;;;16.30;9.55;;;6.40;99.90;;;;;;5071187;28;20051;-68
2022/01/15 00:41:09;;;;;;;16.42;9.55;;;6.50;99.90;;;;;;5080818;28;20056;-66
2022/01/15 00:43:34;;;;;;;15.35;9.15;;;6.40;99.90;;;;;;5084836;28;20040;-66
2022/01/15 00:46:00;;;;;;;16.33;8.98;;;6.40;99.90;;;;;;5078292;28;20047;-67
2022/01/15 00:48:26;;;;;;;18.63;9.10;;;6.40;99.90;;;;;;5087961;28;20060;-66
2022/01/15 00:50:53;;;;;;;16.70;9.52;;;6.40;99.90;;;;;;5089468;28;20044;-67
2022/01/15 00:53:19;;;;;;;16.08;9.18;;;6.50;99.90;;;;;;5086986;28;20483;-67
2022/01/15 00:55:46;;;;;;;19.10;9.30;;;6.40;99.90;;;;;;5113104;28;20178;-67
2022/01/15 00:58:12;;;;;;;18.08;9.48;;;6.40;99.90;;;;;;5076661;28;20097;-66
2022/01/15 01:00:40;;;;;;;13.73;8.32;;;6.50;99.90;;;;;;5080569;28;20094;-67
2022/01/15 01:03:06;;;;;;;17.27;9.10;;;6.50;99.90;;;;;;5088447;28;20052;-67
2022/01/15 01:05:32;;;;;;;16.50;9.60;;;6.50;99.90;;;;;;5086449;28;20093;-68
2022/01/15 01:07:57;;;;;;;14.98;8.18;;;6.50;99.90;;;;;;5090377;28;20051;-67
2022/01/15 01:21:48;;;;;;;18.08;10.10;;;6.40;99.90;;;;;;5082959;28;20488;-66
2022/01/15 01:24:02;;;;;;;18.98;9.82;;;6.40;99.90;;;;;;5090589;28;20136;-66
2022/01/15 01:26:39;;;;;;;15.63;8.82;;;6.40;99.90;;;;;;5085086;28;20102;-67
2022/01/15 01:29:17;;;;;;;17.67;8.50;;;6.40;99.90;;;;;;5084808;28;20127;-68
2022/01/15 01:31:57;;;;;;;20.60;10.50;;;6.40;99.90;;;;;;5084990;28;20126;-67
2022/01/15 01:34:26;;;;;;;21.33;9.80;;;6.40;99.90;;;;;;5087652;28;20060;-66
2022/01/15 01:39:48;;;;;;;20.73;10.35;;;6.40;99.90;;;;;;5079420;28;20052;-66
2022/01/15 01:45:04;;;;;;;15.00;9.07;;;6.40;99.90;;;;;;5094264;28;20060;-66
2022/01/15 01:47:48;;;;;;;13.48;9.40;;;6.40;99.90;;;;;;5095458;28;20059;-67
2022/01/15 01:50:26;;;;;;;15.02;9.20;;;6.40;99.90;;;;;;5080309;28;20047;-67
2022/01/15 01:52:58;;;;;;;15.52;8.68;;;6.40;99.90;;;;;;5085231;28;20503;-66
2022/01/15 01:55:25;;;;;;;18.45;8.60;;;6.40;99.90;;;;;;5120208;27;20052;-66
2022/01/15 01:57:53;;;;;;;14.30;7.65;;;6.40;99.90;;;;;;5094636;28;20076;-67
2022/01/15 02:00:20;;;;;;;12.68;7.35;;;6.40;99.90;;;;;;5092995;28;20044;-67
2022/01/15 02:02:48;;;;;;;16.35;9.02;;;6.40;99.90;;;;;;5081624;28;20057;-66
2022/01/15 02:05:14;;;;;;;17.50;8.57;;;6.40;99.90;;;;;;5075353;28;20139;-67
2022/01/15 02:07:40;;;;;;;19.67;9.10;;;6.40;99.90;;;;;;5073876;28;20116;-66
2022/01/15 02:10:12;;;;;;;18.60;9.07;;;6.40;99.90;;;;;;5078184;28;20052;-66
2022/01/15 02:12:38;;;;;;;14.00;8.27;;;6.40;99.90;;;;;;5083703;28;20499;-68
2022/01/15 02:15:09;;;;;;;14.05;8.35;;;6.30;99.90;;;;;;5076418;28;20056;-67
2022/01/15 02:17:35;;;;;;;14.27;8.18;;;6.40;99.90;;;;;;5082147;28;20048;-67
2022/01/15 02:20:34;;;;;;;14.20;8.07;;;6.40;99.90;;;;;;5074451;28;20131;-67
2022/01/15 02:25:50;;;;;;;9.20;6.32;;;6.40;99.90;;;;;;5074752;28;20056;-67
2022/01/15 02:28:20;;;;;;;7.80;4.90;;;6.40;99.90;;;;;;5083981;28;20055;-68
2022/01/15 02:30:45;;;;;;;6.57;4.75;;;6.40;99.90;;;;;;5091997;28;20212;-66
2022/01/15 02:33:11;;;;;;;6.32;4.35;;;6.40;99.90;;;;;;5091688;28;20082;-66
2022/01/15 02:35:37;;;;;;;4.70;3.60;;;6.30;99.90;;;;;;5075291;28;20092;-66
2022/01/15 02:38:04;;;;;;;5.10;3.65;;;6.30;99.90;;;;;;5074372;28;20051;-66
2022/01/15 02:40:33;;;;;;;3.97;3.03;;;6.30;99.90;;;;;;5074468;28;20048;-68
2022/01/15 02:43:11;;;;;;;4.80;3.20;;;6.30;99.90;;;;;;5088153;28;20127;-67
2022/01/15 02:45:42;;;;;;;5.50;3.60;;;6.30;99.90;;;;;;5085300;28;20056;-67
2022/01/15 02:48:16;;;;;;;4.50;3.20;;;6.30;99.90;;;;;;5122924;27;20044;-68
2022/01/15 02:50:43;;;;;;;4.35;3.15;;;6.30;99.90;;;;;;5075962;28;20056;-67
2022/01/15 02:53:10;;;;;;;4.80;3.20;;;6.30;99.90;;;;;;5080100;28;20052;-66
2022/01/15 02:55:41;;;;;;;4.18;2.97;;;6.30;99.90;;;;;;5085036;28;20123;-66
2022/01/15 02:58:07;;;;;;;6.25;3.00;;;6.30;99.90;;;;;;5078462;28;20101;-67
2022/01/15 03:00:32;;;;;;;4.68;3.40;;;6.30;99.90;;;;;;5083169;28;20045;-66
2022/01/15 03:02:58;;;;;;;4.80;3.25;;;6.30;99.90;;;;;;5073278;28;20044;-66
2022/01/15 03:05:24;;;;;;;6.47;4.13;;;6.20;99.90;;;;;;5073041;28;20041;-67
2022/01/15 03:07:49;;;;;;;5.85;4.05;;;6.30;99.90;;;;;;5072306;28;20389;-66
2022/01/15 03:10:15;;;;;;;4.85;3.38;;;6.30;99.90;;;;;;5087166;28;20139;-67
2022/01/15 03:12:41;;;;;;;7.45;4.18;;;6.30;99.90;;;;;;5084043;28;20079;-66
2022/01/15 03:15:08;;;;;;;6.57;4.07;;;6.30;99.90;;;;;;5091537;28;20048;-66
2022/01/15 03:17:34;;;;;;;5.60;3.80;;;6.30;99.90;;;;;;5073801;28;20177;-68
2022/01/15 03:20:01;;;;;;;5.47;3.72;;;6.30;99.90;;;;;;5074231;28;20060;-66
2022/01/15 03:22:27;;;;;;;5.38;3.58;;;6.30;99.90;;;;;;5087718;28;20067;-66
2022/01/15 03:24:53;;;;;;;5.78;3.78;;;6.30;99.90;;;;;;5087405;28;20068;-66
2022/01/15 03:27:21;;;;;;;6.30;3.60;;;6.20;99.90;;;;;;5106056;28;20044;-69
2022/01/15 03:29:47;;;;;;;6.47;4.20;;;6.20;99.90;;;;;;5084070;28;20093;-69
2022/01/15 03:32:12;;;;;;;6.65;4.63;;;6.20;99.90;;;;;;5071885;28;20506;-66
2022/01/15 03:34:38;;;;;;;6.90;4.13;;;6.20;99.90;;;;;;5073094;28;20056;-66
2022/01/15 03:37:04;;;;;;;8.05;5.05;;;6.20;99.90;;;;;;5089351;28;20048;-67
2022/01/15 03:39:29;;;;;;;10.10;5.07;;;6.20;99.90;;;;;;5082976;28;20048;-67
2022/01/15 03:41:55;;;;;;;9.85;5.85;;;6.20;99.90;;;;;;5073552;28;20486;-67
2022/01/15 03:44:20;;;;;;;10.25;5.85;;;6.20;99.90;;;;;;5088123;28;20052;-67
2022/01/15 03:46:46;;;;;;;11.02;5.93;;;6.20;99.90;;;;;;5079322;28;20157;-67
2022/01/15 03:49:11;;;;;;;10.00;6.15;;;6.20;99.90;;;;;;5084220;28;20060;-66
2022/01/15 03:51:37;;;;;;;11.73;6.57;;;6.20;99.90;;;;;;5071115;28;20051;-67
2022/01/15 03:54:03;;;;;;;9.98;5.65;;;6.20;99.90;;;;;;5074673;28;20060;-65
2022/01/15 03:56:30;;;;;;;9.77;6.28;;;6.10;99.90;;;;;;5056354;28;20048;-66
2022/01/15 03:58:56;;;;;;;9.95;6.13;;;6.20;99.90;;;;;;5073398;28;20056;-68
2022/01/15 04:01:22;;;;;;;10.75;5.97;;;6.10;99.90;;;;;;5077157;28;20151;-68
2022/01/15 04:03:48;;;;;;;12.25;6.47;;;6.20;99.90;;;;;;5093226;28;20056;-69
2022/01/15 04:06:13;;;;;;;10.00;5.57;;;6.10;99.90;;;;;;5086314;28;20119;-67
2022/01/15 04:08:39;;;;;;;13.30;6.57;;;6.20;99.90;;;;;;5088098;28;20040;-67
2022/01/15 04:11:05;;;;;;;10.05;6.43;;;6.20;99.90;;;;;;5085173;28;20075;-68
2022/01/15 04:13:30;;;;;;;11.23;6.57;;;6.10;99.90;;;;;;5078050;28;20385;-68
2022/01/15 04:15:56;;;;;;;9.23;5.53;;;6.10;99.90;;;;;;5083581;28;20075;-66
2022/01/15 04:18:23;;;;;;;12.50;6.20;;;6.10;99.90;;;;;;5078230;28;20113;-68
2022/01/15 04:20:50;;;;;;;10.40;6.10;;;6.20;99.90;;;;;;5090566;28;20055;-67
2022/01/15 04:23:16;;;;;;;12.25;6.10;;;6.10;99.90;;;;;;5070855;28;20178;-68
2022/01/15 04:25:42;;;;;;;13.35;6.82;;;6.20;99.90;;;;;;5072144;28;20128;-67
2022/01/15 04:28:10;;;;;;;12.40;6.82;;;6.20;99.90;;;;;;5074873;28;20056;-67
2022/01/15 04:30:39;;;;;;;14.88;6.93;;;6.10;99.90;;;;;;5089353;28;20053;-67
2022/01/15 04:33:05;;;;;;;15.70;7.18;;;6.10;99.90;;;;;;5068785;28;20181;-68
2022/01/15 04:35:30;;;;;;;14.48;6.95;;;6.10;99.90;;;;;;5086724;28;20132;-67
2022/01/15 04:38:03;;;;;;;12.45;6.13;;;6.10;99.90;;;;;;5094019;28;20052;-68
2022/01/15 04:40:29;;;;;;;12.50;7.07;;;6.10;99.90;;;;;;5126692;27;20085;-66
2022/01/15 04:42:54;;;;;;;14.38;6.95;;;6.10;99.90;;;;;;5088789;28;20133;-68
2022/01/15 04:45:20;;;;;;;12.80;6.72;;;6.00;99.90;;;;;;5080331;28;20444;-67
2022/01/15 04:47:45;;;;;;;12.50;6.85;;;6.00;99.90;;;;;;5095138;28;20059;-67
2022/01/15 04:50:13;;;;;;;12.90;6.68;;;6.00;99.90;;;;;;5080789;28;20067;-68
2022/01/15 04:52:40;;;;;;;14.63;7.05;;;6.10;99.90;;;;;;5080299;28;20052;-66
2022/01/15 04:55:07;;;;;;;11.85;6.93;;;6.10;99.90;;;;;;5085161;28;20056;-67
2022/01/15 04:57:33;;;;;;;13.40;6.80;;;6.00;99.90;;;;;;5092674;28;20523;-67
2022/01/15 04:59:59;;;;;;;13.32;7.03;;;6.00;99.90;;;;;;5076322;28;20040;-67
2022/01/15 05:02:25;;;;;;;11.10;6.47;;;6.10;99.90;;;;;;5079942;28;20540;-67
2022/01/15 05:04:51;;;;;;;9.75;5.60;;;6.00;99.90;;;;;;5087410;28;20052;-67
2022/01/15 05:07:16;;;;;;;10.60;6.47;;;6.00;99.90;;;;;;5091467;28;20075;-67
2022/01/15 05:09:43;;;;;;;11.27;6.10;;;6.00;99.90;;;;;;5076729;28;20105;-67
2022/01/15 05:12:20;;;;;;;12.63;6.53;;;6.00;99.90;;;;;;5075621;28;20040;-68
2022/01/15 05:14:45;;;;;;;10.52;5.65;;;6.00;99.90;;;;;;5078577;28;20492;-67
2022/01/15 05:17:11;;;;;;;8.32;4.65;;;6.00;99.90;;;;;;5093318;28;20058;-69
2022/01/15 05:19:37;;;;;;;10.38;5.18;;;6.00;99.90;;;;;;5085468;28;20045;-67
2022/01/15 05:22:02;;;;;;;7.70;4.57;;;6.00;99.90;;;;;;5121803;27;20093;-68
2022/01/15 05:24:30;;;;;;;10.80;5.53;;;5.90;99.90;;;;;;5093080;28;20382;-68
2022/01/15 05:26:56;;;;;;;11.35;5.63;;;6.00;99.90;;;;;;5095468;28;20048;-68
2022/01/15 05:29:22;;;;;;;15.20;5.63;;;6.00;99.90;;;;;;5087129;28;20397;-67
2022/01/15 05:31:47;;;;;;;11.18;5.65;;;5.90;99.90;;;;;;5087449;28;20078;-69
2022/01/15 05:34:13;;;;;;;9.18;5.45;;;5.90;99.90;;;;;;5085315;28;20382;-67
2022/01/15 05:36:39;;;;;;;9.35;5.75;;;6.00;99.90;;;;;;5094310;28;20055;-69
2022/01/15 05:39:06;;;;;;;9.05;5.00;;;5.90;99.90;;;;;;5087070;28;20052;-68
2022/01/15 05:41:32;;;;;;;10.00;5.55;;;6.00;99.90;;;;;;5057068;28;20067;-66
2022/01/15 05:44:01;;;;;;;9.20;5.30;;;5.90;99.90;;;;;;5075271;28;20068;-65
2022/01/15 05:46:28;;;;;;;11.88;5.93;;;5.90;99.90;;;;;;5073446;28;20071;-66
2022/01/15 05:48:53;;;;;;;9.93;5.82;;;6.00;99.90;;;;;;5099069;28;20044;-66
2022/01/15 05:51:19;;;;;;;8.82;5.82;;;5.90;99.90;;;;;;5081960;28;20216;-67
2022/01/15 05:53:44;;;;;;;10.70;5.57;;;6.00;99.90;;;;;;5094876;28;20073;-66
2022/01/15 05:56:10;;;;;;;11.82;5.80;;;5.90;99.90;;;;;;5090389;28;20048;-68
2022/01/15 05:58:36;;;;;;;11.43;5.90;;;6.00;99.90;;;;;;5086509;28;20079;-66
2022/01/15 06:01:01;;;;;;;11.13;5.75;;;5.90;99.90;;;;;;5089692;28;20067;-67
2022/01/15 06:03:27;;;;;;;11.05;5.50;;;6.50;99.90;;;;;;5089171;28;20048;-67
2022/01/15 06:05:52;;;;;;;12.45;5.97;;;5.90;99.90;;;;;;5091069;28;20492;-67
2022/01/15 06:08:18;;;;;;;9.02;5.20;;;5.90;99.90;;;;;;5074709;28;20504;-66
2022/01/15 06:10:43;;;;;;;9.73;5.63;;;5.90;99.90;;;;;;5075764;28;20049;-67
2022/01/15 06:13:09;;;;;;;10.40;5.93;;;5.90;99.90;;;;;;5088583;28;20132;-67
2022/01/15 06:15:34;;;;;;;10.75;6.13;;;5.90;99.90;;;;;;5074043;28;20131;-67
2022/01/15 06:18:00;;;;;;;10.48;5.85;;;5.90;99.90;;;;;;5091326;28;20048;-68
2022/01/15 06:20:26;;;;;;;8.75;5.63;;;5.90;99.90;;;;;;5076961;28;20044;-68
2022/01/15 06:22:51;;;;;;;7.13;4.55;;;5.90;99.90;;;;;;5078634;28;20094;-67
2022/01/15 06:25:17;;;;;;;8.55;5.72;;;5.90;99.90;;;;;;5074199;28;20084;-67
2022/01/15 06:27:42;;;;;;;7.10;4.68;;;5.90;99.90;;;;;;5075042;28;20051;-66
2022/01/15 06:30:08;;;;;;;7.20;4.20;;;5.80;99.90;;;;;;5090779;28;20075;-67
2022/01/15 06:32:36;;;;;;;7.10;4.35;;;5.80;99.90;;;;;;5073586;28;20040;-66
2022/01/15 06:35:10;;;;;;;9.02;4.35;;;5.80;99.90;;;;;;5088898;28;20122;-67
2022/01/15 06:37:36;;;;;;;8.43;4.53;;;5.80;99.90;;;;;;5056584;28;20059;-66
2022/01/15 06:40:03;;;;;;;6.00;4.32;;;5.80;99.90;;;;;;5074962;28;20052;-67
2022/01/15 06:42:29;;;;;;;7.55;4.47;;;5.80;99.90;;;;;;5085598;28;20413;-66
2022/01/15 06:44:55;;;;;;;7.28;5.20;;;5.80;99.90;;;;;;5074581;28;20056;-67
2022/01/15 06:47:21;;;;;;;8.00;4.95;;;5.80;99.90;;;;;;5083947;28;20052;-68
2022/01/15 06:49:46;;;;;;;7.32;4.63;;;5.80;99.90;;;;;;5093449;28;20051;-66
2022/01/15 06:52:12;;;;;;;5.78;4.30;;;5.80;99.90;;;;;;5091976;28;20048;-67
2022/01/15 06:54:38;;;;;;;7.40;4.20;;;5.80;99.90;;;;;;5081794;28;20040;-66
2022/01/15 06:57:04;;;;;;;6.68;4.10;;;5.80;99.90;;;;;;5078619;28;20407;-66
2022/01/15 06:59:29;;;;;;;7.13;4.25;;;5.80;99.90;;;;;;5092025;28;20059;-67
2022/01/15 07:01:55;;;;;;;6.75;4.90;;;5.70;99.90;;;;;;5077392;28;20056;-68
2022/01/15 07:04:20;;;;;;;7.25;4.68;;;5.70;99.90;;;;;;5072808;28;20044;-67
2022/01/15 07:06:46;;;;;;;8.15;5.13;;;5.70;99.90;;;;;;5086102;28;20044;-66
2022/01/15 07:09:12;;;;;;;8.63;5.57;;;5.70;99.90;;;;;;5084687;28;20052;-66
2022/01/15 07:11:37;;;;;;;9.05;5.88;;;5.70;99.90;;;;;;5093960;28;20519;-67
2022/01/15 07:14:03;;;;;;;9.00;5.85;;;5.70;99.90;;;;;;5089045;28;20056;-67
2022/01/15 07:16:29;;;;;;;10.05;5.78;;;6.00;99.90;;;;;;5088086;28;20080;-65
2022/01/15 07:18:54;;;;;;;8.52;5.65;;;5.70;99.90;;;;;;5089409;28;20400;-68
2022/01/15 07:21:20;;;;;;;11.05;6.85;;;5.70;99.90;;;;;;5091841;28;20052;-67
2022/01/15 07:23:45;;;;;;;9.52;6.05;;;5.70;99.90;;;;;;5089631;28;20044;-65
2022/01/15 07:26:11;;;;;;;10.07;6.18;;;5.70;99.90;;;;;;5072348;28;20055;-66
2022/01/15 07:28:37;;;;;;;10.52;6.20;;;5.70;99.90;;;;;;5075449;28;20055;-67
2022/01/15 07:31:02;;;;;;;10.55;7.13;;;5.70;99.90;;;;;;5085054;28;20532;-66
2022/01/15 07:33:28;;;;;;;10.25;6.20;;;5.70;99.90;;;;;;5079067;28;20056;-67
2022/01/15 07:35:55;;;;;;;8.93;6.25;;;5.70;99.90;;;;;;5093062;28;20060;-65
2022/01/15 07:38:21;;;;;;;9.70;6.45;;;5.70;99.90;;;;;;5079329;28;20052;-66
2022/01/15 07:40:48;;;;;;;11.00;6.47;;;5.60;99.90;;;;;;5088213;28;20051;-67
2022/01/15 07:43:14;;;;;;;9.57;6.50;;;5.70;99.90;;;;;;5112154;27;20057;-66
2022/01/15 07:45:41;;;;;;;10.13;6.82;;;5.70;99.90;;;;;;5072581;28;20053;-66
2022/01/15 07:48:06;;;;;;;10.48;6.90;;;5.70;99.90;;;;;;5083643;28;20052;-65
2022/01/15 07:50:32;;;;;;;10.18;6.15;;;5.60;99.90;;;;;;5073238;28;20055;-66
2022/01/15 07:52:58;;;;;;;12.05;7.10;;;5.60;99.90;;;;;;5073144;28;20492;-66
2022/01/15 07:55:25;;;;;;;10.48;6.88;;;5.60;99.90;;;;;;5071882;28;20048;-66
2022/01/15 07:57:51;;;;;;;10.70;6.90;;;5.60;99.90;;;;;;5100118;28;20138;-66
2022/01/15 08:00:17;;;;;;;10.73;6.75;;;5.60;99.90;;;;;;5093586;28;20105;-67
2022/01/15 08:02:43;;;;;;;11.13;6.80;;;5.60;99.90;;;;;;5110674;27;20044;-67
2022/01/15 08:05:10;;;;;;;11.05;7.00;;;5.60;99.90;;;;;;5072677;28;20055;-66
2022/01/15 08:07:43;;;;;;;11.07;7.13;;;5.60;99.90;;;;;;5090961;28;20055;-67
2022/01/15 08:10:09;;;;;;;13.10;7.35;;;5.60;99.90;;;;;;5092559;28;20381;-67
2022/01/15 08:12:45;;;;;;;10.50;6.53;;;5.50;99.90;;;;;;5093357;28;20396;-67
2022/01/15 08:15:11;;;;;;;10.35;6.90;;;5.50;99.90;;;;;;5091972;28;20055;-68
2022/01/15 08:17:36;;;;;;;12.52;7.70;;;5.50;99.90;;;;;;5089773;28;20036;-66
2022/01/15 08:20:03;;;;;;;10.27;6.78;;;5.50;99.90;;;;;;5092054;28;20044;-66
2022/01/15 08:22:28;;;;;;;12.00;7.25;;;5.50;99.90;;;;;;5091065;28;20055;-66
2022/01/15 08:24:54;;;;;;;9.52;6.65;;;5.50;99.90;;;;;;5093625;28;20056;-66
2022/01/15 08:27:20;;;;;;;10.77;6.70;;;5.50;99.90;;;;;;5075175;28;20084;-66
2022/01/15 08:29:45;;;;;;;14.30;9.55;;;5.50;99.90;;;;;;5092039;28;20048;-66
2022/01/15 08:32:11;;;;;;;10.20;6.53;;;5.50;99.90;;;;;;5083475;28;20076;-66
2022/01/15 08:34:37;;;;;;;12.48;7.05;;;5.50;99.90;;;;;;5072175;28;20063;-67
2022/01/15 08:37:03;;;;;;;13.93;9.88;;;5.50;99.90;;;;;;5077402;28;20055;-66
2022/01/15 08:39:29;;;;;;;11.30;6.90;;;5.40;99.90;;;;;;5089344;28;20397;-66
2022/01/15 08:41:54;;;;;;;12.60;8.77;;;5.50;99.90;;;;;;5092837;28;20055;-66
2022/01/15 08:44:22;;;;;;;10.02;6.93;;;5.40;99.90;;;;;;5090846;28;20072;-67
2022/01/15 08:46:48;;;;;;;9.77;5.82;;;5.50;99.90;;;;;;5087732;28;20056;-67
2022/01/15 08:49:14;;;;;;;9.43;5.78;;;5.40;99.90;;;;;;5071420;28;20063;-67
2022/01/15 08:51:39;;;;;;;8.85;6.07;;;5.40;99.90;;;;;;5054596;28;20060;-67
2022/01/15 08:54:05;;;;;;;11.30;6.47;;;5.40;99.90;;;;;;5071545;28;20049;-66
2022/01/15 08:56:31;;;;;;;10.40;6.20;;;5.50;99.90;;;;;;5080328;28;20372;-67
2022/01/15 08:58:56;;;;;;;10.38;6.45;;;5.50;99.90;;;;;;5079391;28;20101;-65
2022/01/15 09:01:22;;;;;;;12.52;6.80;;;5.50;99.90;;;;;;5084899;28;20106;-67
2022/01/15 09:03:48;;;;;;;13.15;7.65;;;5.50;99.90;;;;;;5100259;28;20059;-67
2022/01/15 09:06:13;;;;;;;13.15;7.45;;;5.50;99.90;;;;;;5073936;28;20117;-67
2022/01/15 09:08:39;;;;;;;11.70;7.10;;;5.50;99.90;;;;;;5072836;28;20052;-67
2022/01/15 09:11:06;;;;;;;12.90;7.78;;;5.50;99.90;;;;;;5087711;28;20453;-66
2022/01/15 09:13:31;;;;;;;13.77;8.52;;;5.50;99.90;;;;;;5071016;28;20102;-65
2022/01/15 09:15:57;;;;;;;13.10;8.38;;;5.50;99.90;;;;;;5084088;28;20060;-66
2022/01/15 09:18:23;;;;;;;12.50;7.80;;;5.50;99.90;;;;;;5072164;28;20112;-67
2022/01/15 09:20:49;;;;;;;15.63;8.40;;;5.50;99.90;;;;;;5058004;28;20052;-67
2022/01/15 09:23:17;;;;;;;14.40;8.52;;;5.50;99.90;;;;;;5109632;27;20048;-66
2022/01/15 09:25:43;;;;;;;14.75;8.65;;;5.50;99.90;;;;;;5113030;27;20048;-66
2022/01/15 09:30:55;;;;;;;17.13;10.07;;;5.50;99.90;;;;;;5083055;28;20048;-66
2022/01/15 09:33:21;;;;;;;16.13;9.90;;;5.40;99.90;;;;;;5077881;28;20098;-66
2022/01/15 09:35:50;;;;;;;17.08;9.65;;;5.50;99.90;;;;;;5074335;28;20044;-68
2022/01/15 09:38:15;;;;;;;16.90;9.93;;;5.50;99.90;;;;;;5077734;28;20040;-66
2022/01/15 09:40:42;;;;;;;17.42;10.55;;;5.50;99.90;;;;;;5089320;28;20412;-66
2022/01/15 09:43:11;;;;;;;16.73;10.27;;;5.50;99.90;;;;;;5075932;28;20053;-66
2022/01/15 09:45:36;;;;;;;19.42;9.80;;;5.50;99.90;;;;;;5094073;28;20056;-64
2022/01/15 09:48:05;;;;;;;17.55;10.10;;;5.40;99.90;;;;;;5095627;28;20051;-66
2022/01/15 09:50:33;;;;;;;14.82;9.18;;;5.40;99.90;;;;;;5094966;28;20063;-65
2022/01/15 09:52:59;;;;;;;17.55;10.65;;;5.50;99.90;;;;;;5077671;28;20047;-66
2022/01/15 09:55:26;;;;;;;16.73;9.77;;;5.40;99.90;;;;;;5083982;28;20044;-67
2022/01/15 09:58:43;;;;;;;18.00;10.10;;;5.40;99.90;;;;;;5075203;28;20060;-66
2022/01/15 10:01:10;;;;;;;16.80;10.45;;;5.40;99.90;;;;;;5081375;28;20113;-66
2022/01/15 10:03:36;;;;;;;18.55;11.18;;;5.40;99.90;;;;;;5094432;28;20142;-65
2022/01/15 10:06:05;;;;;;;21.88;11.32;;;5.40;99.90;;;;;;5094016;28;20079;-67
2022/01/15 10:08:31;;;;;;;19.02;11.43;;;5.40;99.90;;;;;;5095839;28;20387;-66
2022/01/15 10:10:58;;;;;;;21.27;12.57;;;5.40;99.90;;;;;;5095477;28;20286;-66
2022/01/15 10:13:29;;;;;;;17.98;10.32;;;5.50;99.90;;;;;;5112375;28;20056;-67
2022/01/15 10:15:57;;;;;;;21.85;11.05;;;5.40;99.90;;;;;;5093715;28;20052;-68
2022/01/15 10:18:35;;;;;;;17.55;10.50;;;5.50;99.90;;;;;;5095545;28;20098;-66
2022/01/15 10:21:16;;;;;;;14.82;9.75;;;6.10;99.90;;;;;;5090340;28;20051;-66
2022/01/15 10:23:51;;;;;;;15.18;9.40;;;5.50;99.90;;;;;;5073545;28;20044;-65
2022/01/15 10:26:19;;;;;;;15.57;9.23;;;5.50;99.90;;;;;;5056732;28;20055;-66
2022/01/15 10:29:13;;;;;;;14.80;9.55;;;5.50;99.90;;;;;;5076652;28;20051;-67
2022/01/15 10:31:44;;;;;;;15.27;9.85;;;5.50;99.90;;;;;;5091336;28;20403;-66
2022/01/15 10:34:28;;;;;;;12.35;8.10;;;5.50;99.90;;;;;;5092960;28;20395;-66
2022/01/15 10:37:05;;;;;;;13.20;8.60;;;5.50;99.90;;;;;;5093414;28;20048;-66
2022/01/15 10:39:31;;;;;;;12.20;8.55;;;5.30;99.90;;;;;;5093440;28;20376;-67
2022/01/15 10:41:57;;;;;;;12.70;8.55;;;5.40;99.90;;;;;;5090209;28;20132;-66
2022/01/15 10:44:36;;;;;;;15.18;9.07;;;5.40;99.90;;;;;;5081853;28;20397;-66
2022/01/15 10:47:10;;;;;;;13.50;9.25;;;5.50;99.90;;;;;;5089493;28;20056;-66
2022/01/15 10:49:37;;;;;;;11.63;8.15;;;5.40;99.90;;;;;;5093318;28;20056;-66
2022/01/15 10:52:08;;;;;;;15.38;10.35;;;5.40;99.90;;;;;;5075164;28;20638;-66
2022/01/15 10:54:54;;;;;;;16.08;10.85;;;5.50;99.90;;;;;;5090379;28;20115;-66
2022/01/15 10:57:23;;;;;;;17.38;11.18;;;5.40;99.90;;;;;;5088963;28;20059;-66
2022/01/15 11:00:01;;;;;;;17.05;11.18;;;5.50;99.90;;;;;;5074522;28;20091;-67
2022/01/15 11:02:27;;;;;;;16.50;11.25;;;5.40;99.90;;;;;;5072145;28;20064;-66
2022/01/15 11:04:53;;;;;;;16.42;10.98;;;5.40;99.90;;;;;;5072966;28;20044;-66
2022/01/15 11:07:19;;;;;;;20.50;12.82;;;5.40;99.90;;;;;;5073288;28;20515;-65
2022/01/15 11:09:56;;;;;;;19.38;12.43;;;5.40;99.90;;;;;;5092436;28;20109;-66
2022/01/15 11:12:27;;;;;;;19.50;12.32;;;5.40;99.90;;;;;;5093116;28;20059;-66
2022/01/15 11:14:54;;;;;;;21.23;13.23;;;5.40;99.90;;;;;;5075291;28;20157;-66
2022/01/15 11:17:19;;;;;;;20.88;13.65;;;5.40;99.90;;;;;;5092255;28;20039;-67
2022/01/15 11:19:46;;;;;;;19.60;12.63;;;5.40;99.90;;;;;;5092692;28;20048;-66
2022/01/15 11:22:26;;;;;;;19.20;13.43;;;5.40;99.90;;;;;;5093801;28;20060;-66
2022/01/15 11:24:52;;;;;;;21.02;12.82;;;5.50;99.90;;;;;;5089730;28;20048;-67
2022/01/15 11:27:18;;;;;;;20.08;13.70;;;5.40;99.90;;;;;;5087039;28;20060;-66
2022/01/15 11:29:46;;;;;;;20.50;12.98;;;5.40;99.90;;;;;;5072613;28;20123;-66
2022/01/15 11:32:15;;;;;;;19.77;12.13;;;5.40;99.90;;;;;;5073155;28;20127;-65
2022/01/15 11:34:44;;;;;;;21.60;13.35;;;5.50;99.90;;;;;;5056367;28;20079;-67
2022/01/15 11:37:19;;;;;;;17.75;12.13;;;5.40;99.90;;;;;;5072473;28;20052;-65
2022/01/15 11:39:47;;;;;;;19.50;12.82;;;5.40;99.90;;;;;;5107927;28;20045;-67
2022/01/15 11:42:35;;;;;;;22.33;13.00;;;5.40;99.90;;;;;;5085623;28;20424;-66
2022/01/15 11:45:01;;;;;;;17.45;12.20;;;5.50;99.90;;;;;;5075271;28;20051;-66
2022/01/15 11:47:27;;;;;;;18.77;12.05;;;5.30;99.90;;;;;;5075191;28;20056;-66
2022/01/15 11:49:57;;;;;;;17.85;12.95;;;5.70;99.90;;;;;;5075759;28;20131;-66
2022/01/15 11:52:23;;;;;;;20.75;13.63;;;5.40;99.90;;;;;;5075549;28;20046;-66
2022/01/15 11:54:49;;;;;;;18.88;12.90;;;5.40;99.90;;;;;;5093966;28;20051;-67
2022/01/15 11:57:36;;;;;;;20.65;13.18;;;5.40;99.90;;;;;;5073097;28;20052;-65
2022/01/15 12:00:15;;;;;;;19.33;13.13;;;5.60;99.90;;;;;;5102841;28;20083;-67
2022/01/15 12:02:41;;;;;;;18.83;12.90;;;5.50;99.90;;;;;;5091692;28;20083;-66
2022/01/15 12:05:17;;;;;;;22.38;13.40;;;5.60;99.90;;;;;;5092262;28;20454;-67
2022/01/15 12:07:43;;;;;;;21.00;13.00;;;5.00;99.90;;;;;;5091903;28;20062;-67
2022/01/15 12:10:17;;;;;;;19.10;12.85;;;5.80;99.90;;;;;;5092254;28;20052;-66
2022/01/15 12:12:51;;;;;;;18.55;13.10;;;5.40;99.90;;;;;;5106292;27;20055;-65
2022/01/15 12:15:26;;;;;;;20.98;14.05;;;5.30;99.90;;;;;;5108352;27;20155;-66
2022/01/15 12:17:54;;;;;;;20.88;13.73;;;5.30;99.90;;;;;;5070984;28;20084;-66
2022/01/15 12:20:25;;;;;;;33.38;22.95;;;5.40;99.90;;;;;;5071854;28;20048;-65
2022/01/15 12:23:21;;;;;;;22.93;14.67;;;5.40;99.90;;;;;;5071677;28;20052;-67
2022/01/15 12:25:49;;;;;;;23.55;14.45;;;5.00;99.90;;;;;;5108857;27;20365;-66
2022/01/15 12:28:16;;;;;;;22.25;15.20;;;5.30;99.90;;;;;;5089994;28;20126;-66
2022/01/15 12:30:46;;;;;;;20.17;13.52;;;5.50;99.90;;;;;;5079977;28;20044;-65
2022/01/15 12:33:14;;;;;;;20.13;13.35;;;5.40;99.90;;;;;;5071990;28;20426;-66
2022/01/15 12:35:43;;;;;;;21.70;13.55;;;4.80;99.90;;;;;;5071099;28;20106;-66
2022/01/15 12:38:21;;;;;;;21.58;13.27;;;5.40;99.90;;;;;;5071704;28;20089;-66
2022/01/15 12:40:53;;;;;;;20.95;13.82;;;5.40;99.90;;;;;;5087792;28;20155;-66
2022/01/15 12:43:29;;;;;;;20.67;13.45;;;5.30;99.90;;;;;;5091759;28;20127;-66
2022/01/15 12:45:56;;;;;;;22.65;14.48;;;5.10;99.90;;;;;;5091487;28;20059;-66
2022/01/15 12:48:25;;;;;;;24.45;14.60;;;5.40;99.90;;;;;;5091650;28;20120;-66
2022/01/15 12:50:53;;;;;;;20.58;14.23;;;5.50;99.90;;;;;;5091289;28;20056;-66
2022/01/15 12:53:25;;;;;;;21.38;14.02;;;5.10;99.90;;;;;;5091712;28;20056;-66
2022/01/15 12:55:52;;;;;;;22.10;13.77;;;5.30;99.90;;;;;;5076642;28;20108;-67
2022/01/15 12:58:23;;;;;;;25.08;14.00;;;5.20;99.90;;;;;;5086600;28;20400;-66
2022/01/15 13:00:50;;;;;;;21.52;14.48;;;5.30;99.90;;;;;;5077258;28;20102;-67
2022/01/15 13:03:19;;;;;;;24.23;14.60;;;5.20;99.90;;;;;;5091729;28;20052;-66
2022/01/15 13:05:56;;;;;;;23.42;15.50;;;5.30;99.90;;;;;;5096452;28;20056;-66
2022/01/15 13:08:32;;;;;;;26.27;15.23;;;5.40;99.90;;;;;;5095567;28;20052;-67
2022/01/15 13:11:19;;;;;;;23.38;15.18;;;5.40;99.90;;;;;;5089908;28;20090;-66
2022/01/15 13:13:47;;;;;;;26.60;15.93;;;5.30;99.90;;;;;;5095111;28;20075;-67
2022/01/15 13:16:25;;;;;;;27.20;15.93;;;5.30;99.90;;;;;;5084553;28;20074;-67